Time;durP1;ratioP1;P1;durP2;ratioP2;P2;SDS_P1;SDS_P2;PMS_P1;PMS_P2;Temp;Humidity;BMP_temperature;BMP_pressure;BME280_temperature;BME280_humidity;BME280_pressure;Samples;Min_cycle;Max_cycle;Signal;HPM_P1;HPM_P2
2022/10/10 00:01:49;;;;;;;8.15;3.33;;;;;;;11.12;73.57;99747.75;6230270;22;20022;-68
2022/10/10 00:04:14;;;;;;;8.43;4.10;;;;;;;11.14;73.71;99745.81;6228956;22;20023;-68
2022/10/10 00:06:38;;;;;;;6.28;3.50;;;;;;;11.15;73.49;99744.88;6230461;22;20058;-71
2022/10/10 00:09:04;;;;;;;6.82;4.00;;;;;;;11.16;73.56;99757.25;6228919;22;20016;-67
2022/10/10 00:11:29;;;;;;;5.88;3.67;;;;;;;11.17;73.39;99752.75;6228580;22;20016;-71
2022/10/10 00:13:54;;;;;;;7.05;3.97;;;;;;;11.17;73.10;99747.44;6230329;22;20029;-69
2022/10/10 00:16:19;;;;;;;6.60;3.63;;;;;;;11.16;73.19;99751.91;6230398;22;20042;-69
2022/10/10 00:18:44;;;;;;;5.80;4.00;;;;;;;11.15;73.48;99752.88;6230496;22;20024;-68
2022/10/10 00:21:09;;;;;;;4.55;3.70;;;;;;;11.14;72.71;99759.16;6230654;22;20020;-67
2022/10/10 00:23:34;;;;;;;5.00;3.50;;;;;;;11.12;73.25;99769.09;6236290;22;20086;-68
2022/10/10 00:25:59;;;;;;;5.00;3.75;;;;;;;11.13;73.35;99769.94;6237721;22;20027;-68
2022/10/10 00:28:24;;;;;;;5.43;3.65;;;;;;;11.12;72.75;99774.44;6228856;22;20022;-69
2022/10/10 00:30:48;;;;;;;5.53;3.75;;;;;;;11.09;73.08;99777.31;6228491;22;20015;-68
2022/10/10 00:33:14;;;;;;;5.93;3.92;;;;;;;11.08;73.42;99780.94;6229629;22;20015;-69
2022/10/10 00:35:39;;;;;;;5.80;3.67;;;;;;;11.08;73.69;99782.75;6228603;22;20023;-67
2022/10/10 00:38:03;;;;;;;5.22;4.13;;;;;;;11.07;73.32;99786.38;6230055;22;20015;-69
2022/10/10 00:40:28;;;;;;;5.50;3.75;;;;;;;11.09;74.07;99793.31;6228366;22;20019;-69
2022/10/10 00:42:53;;;;;;;5.13;3.55;;;;;;;11.10;73.68;99787.03;6229962;22;20007;-68
2022/10/10 00:45:26;;;;;;;6.13;3.70;;;;;;;11.16;72.93;99793.75;6228705;22;20026;-67
2022/10/10 00:47:57;;;;;;;8.30;3.43;;;;;;;11.12;73.33;99785.09;6233133;22;20061;-70
2022/10/10 00:50:23;;;;;;;5.30;3.30;;;;;;;11.11;73.42;99779.88;6229706;22;20270;-69
2022/10/10 00:52:49;;;;;;;6.30;3.63;;;;;;;11.12;72.78;99781.56;6228539;22;20043;-69
2022/10/10 00:55:14;;;;;;;5.97;3.60;;;;;;;11.12;72.67;99782.44;6230835;22;20466;-68
2022/10/10 00:57:39;;;;;;;5.78;3.65;;;;;;;11.12;72.97;99792.25;6229885;22;20011;-68
2022/10/10 01:00:04;;;;;;;7.10;3.65;;;;;;;11.11;72.94;99790.53;6228337;22;20026;-68
2022/10/10 01:02:29;;;;;;;5.28;3.75;;;;;;;11.10;72.47;99792.34;6229876;22;20012;-67
2022/10/10 01:04:54;;;;;;;4.93;3.10;;;;;;;11.06;72.19;99796.19;6230141;22;20073;-68
2022/10/10 01:07:28;;;;;;;5.78;3.10;;;;;;;11.06;72.13;99798.84;6229869;22;20020;-67
2022/10/10 01:09:55;;;;;;;;;;;;;;;11.19;71.78;99805.03;6230567;22;20020;-67
2022/10/10 01:12:29;;;;;;;3.75;3.30;;;;;;;11.06;71.94;99800.72;6228461;22;20102;-67
2022/10/10 01:15:11;;;;;;;5.33;3.47;;;;;;;11.10;72.02;99794.16;6177423;22;20104;-68
2022/10/10 01:17:55;;;;;;;7.55;3.30;;;;;;;11.00;72.37;99806.47;6229809;22;20094;-68
2022/10/10 01:20:39;;;;;;;4.47;2.90;;;;;;;10.98;71.95;99806.56;6228454;22;20027;-67
2022/10/10 01:23:29;;;;;;;5.75;3.13;;;;;;;10.87;72.09;99806.47;6231127;22;20855;-67
2022/10/10 01:26:31;;;;;;;5.18;3.28;;;;;;;10.82;72.36;99813.94;6230084;22;20027;-68
2022/10/10 01:29:06;;;;;;;5.40;3.58;;;;;;;10.70;72.34;99818.31;6228147;22;20026;-68
2022/10/10 01:31:37;;;;;;;4.18;3.30;;;;;;;10.61;73.17;99823.44;6230150;22;20471;-69
2022/10/10 01:34:29;;;;;;;9.05;3.67;;;;;;;10.63;72.84;99827.69;6227961;22;20022;-67
2022/10/10 01:37:16;;;;;;;6.03;3.40;;;;;;;10.65;73.17;99830.25;6228774;22;20015;-69
2022/10/10 01:39:46;;;;;;;5.63;3.25;;;;;;;10.61;72.91;99829.59;6230249;22;20021;-67
2022/10/10 01:42:30;;;;;;;4.90;3.10;;;;;;;10.69;72.96;99837.09;6229918;22;20039;-68
2022/10/10 01:44:55;;;;;;;9.43;3.87;;;;;;;10.63;72.52;99842.81;6228016;22;20031;-68
2022/10/10 01:47:22;;;;;;;6.55;3.28;;;;;;;10.65;72.90;99849.75;6229828;22;20015;-68
2022/10/10 01:49:50;;;;;;;5.75;3.15;;;;;;;10.69;72.52;99855.75;6229192;22;20443;-68
2022/10/10 01:52:36;;;;;;;3.78;2.92;;;;;;;10.71;72.04;99867.16;6202442;22;20023;-68
2022/10/10 01:55:26;;;;;;;5.40;3.28;;;;;;;10.73;71.59;99860.75;6229707;22;20042;-69
2022/10/10 01:57:51;;;;;;;3.40;2.78;;;;;;;10.72;71.70;99868.88;6231303;22;20464;-68
2022/10/10 02:00:17;;;;;;;6.57;3.28;;;;;;;10.73;71.00;99870.56;6231808;22;20522;-68
2022/10/10 02:02:56;;;;;;;3.55;2.63;;;;;;;10.78;71.44;99866.63;6234867;22;20352;-67
2022/10/10 02:05:38;;;;;;;3.60;2.92;;;;;;;10.74;71.28;99873.13;6231104;22;20156;-68
2022/10/10 02:08:08;;;;;;;8.95;4.95;;;;;;;10.74;70.82;99870.47;6229352;22;20443;-69
2022/10/10 02:10:42;;;;;;;11.60;3.55;;;;;;;10.74;69.97;99881.13;6234569;22;20022;-68
2022/10/10 02:13:10;;;;;;;5.78;3.40;;;;;;;10.73;70.29;99881.22;6237444;22;20022;-67
2022/10/10 02:15:41;;;;;;;6.63;3.45;;;;;;;10.73;70.57;99881.22;6229522;22;20102;-69
2022/10/10 02:18:09;;;;;;;4.93;3.05;;;;;;;10.70;70.18;99886.78;6233085;22;20026;-68
2022/10/10 02:20:35;;;;;;;5.68;3.20;;;;;;;10.68;70.14;99891.38;6232424;22;20469;-69
2022/10/10 02:22:59;;;;;;;9.30;3.67;;;;;;;10.66;70.61;99896.81;6228596;22;20023;-68
2022/10/10 02:25:32;;;;;;;4.32;2.92;;;;;;;10.67;70.67;99903.00;6227843;22;20098;-68
2022/10/10 02:28:18;;;;;;;2.92;2.50;;;;;;;10.71;70.68;99899.16;6227914;22;20015;-68
2022/10/10 02:30:46;;;;;;;3.78;2.90;;;;;;;10.67;70.84;99903.00;6227664;22;20019;-67
2022/10/10 02:33:15;;;;;;;4.47;3.08;;;;;;;10.68;70.57;99910.03;6229309;22;20022;-67
2022/10/10 02:35:44;;;;;;;4.93;3.25;;;;;;;10.67;70.70;99911.84;6227187;22;20019;-69
2022/10/10 02:38:11;;;;;;;5.07;3.13;;;;;;;10.70;70.71;99916.97;6228680;22;20027;-69
2022/10/10 02:40:38;;;;;;;5.90;3.30;;;;;;;10.71;71.05;99912.50;6228913;22;20065;-67
2022/10/10 02:43:06;;;;;;;7.65;3.45;;;;;;;10.75;71.58;99905.97;6228652;22;20091;-68
2022/10/10 02:45:32;;;;;;;6.68;2.85;;;;;;;10.75;71.06;99916.66;6227739;22;20027;-69
2022/10/10 02:47:56;;;;;;;5.70;3.05;;;;;;;10.78;71.02;99905.78;6227348;22;20022;-68
2022/10/10 02:50:22;;;;;;;4.32;3.13;;;;;;;10.79;71.60;99919.03;6229248;22;20020;-68
2022/10/10 02:52:46;;;;;;;4.28;3.17;;;;;;;10.80;71.22;99920.72;6227539;22;20042;-68
2022/10/10 02:55:11;;;;;;;5.50;3.60;;;;;;;10.81;71.46;99911.78;6229334;22;20095;-68
2022/10/10 02:57:36;;;;;;;4.57;3.40;;;;;;;10.82;70.99;99912.63;6229569;22;20081;-68
2022/10/10 03:00:00;;;;;;;7.03;3.50;;;;;;;10.84;71.36;99919.53;6228036;22;20426;-69
2022/10/10 03:02:25;;;;;;;6.45;3.30;;;;;;;10.84;70.73;99919.53;6229723;22;20095;-68
2022/10/10 03:04:50;;;;;;;5.72;3.35;;;;;;;10.85;71.00;99928.41;6229439;22;20015;-68
2022/10/10 03:07:14;;;;;;;6.88;3.50;;;;;;;10.85;71.16;99931.06;6229555;22;20043;-69
2022/10/10 03:09:39;;;;;;;5.80;3.20;;;;;;;10.85;71.33;99929.25;6229175;22;20462;-68
2022/10/10 03:12:04;;;;;;;4.70;2.88;;;;;;;10.86;71.20;99928.28;6229615;22;20022;-68
2022/10/10 03:14:29;;;;;;;4.90;2.90;;;;;;;10.86;70.58;99932.78;6229446;22;20447;-69
2022/10/10 03:16:53;;;;;;;7.78;3.92;;;;;;;10.87;70.63;99930.00;6227740;22;20551;-68
2022/10/10 03:19:18;;;;;;;4.40;3.00;;;;;;;10.86;70.77;99932.78;6229384;22;20026;-68
2022/10/10 03:21:42;;;;;;;4.93;3.03;;;;;;;10.85;70.50;99928.41;6229814;22;20015;-68
2022/10/10 03:24:07;;;;;;;9.02;3.67;;;;;;;10.81;70.46;99926.91;6229713;22;20008;-67
2022/10/10 03:26:32;;;;;;;4.18;3.30;;;;;;;10.80;70.36;99946.53;6227576;22;20077;-68
2022/10/10 03:28:56;;;;;;;6.55;3.33;;;;;;;10.78;70.42;99937.78;6227765;22;20019;-68
2022/10/10 03:31:21;;;;;;;7.22;3.78;;;;;;;10.79;70.29;99944.81;6228813;22;20015;-72
2022/10/10 03:33:45;;;;;;;5.60;3.10;;;;;;;10.78;70.21;99964.44;6230174;22;20145;-72
2022/10/10 03:36:10;;;;;;;5.15;3.38;;;;;;;10.80;70.15;99951.88;6231821;22;20035;-71
2022/10/10 03:38:35;;;;;;;5.82;3.30;;;;;;;10.81;70.21;99958.91;6231437;22;20024;-71
2022/10/10 03:41:00;;;;;;;4.95;3.33;;;;;;;10.83;69.97;99965.00;6179789;22;20012;-71
2022/10/10 03:43:24;;;;;;;4.90;3.50;;;;;;;10.81;69.69;99964.25;6229008;22;20046;-71
2022/10/10 03:45:49;;;;;;;5.53;3.03;;;;;;;10.80;69.80;99971.41;6231545;22;20078;-71
2022/10/10 03:48:14;;;;;;;4.90;3.03;;;;;;;10.80;69.45;99978.53;6234145;22;20094;-72
2022/10/10 03:50:39;;;;;;;4.85;3.33;;;;;;;10.79;69.28;99982.16;6232385;22;20454;-71
2022/10/10 03:53:04;;;;;;;6.15;3.10;;;;;;;10.80;68.66;99986.53;6231627;22;20042;-71
2022/10/10 03:55:28;;;;;;;7.53;3.85;;;;;;;10.78;69.49;99993.78;6231872;22;20042;-71
2022/10/10 03:57:53;;;;;;;6.38;3.50;;;;;;;10.78;69.19;99991.13;6231393;22;20016;-72
2022/10/10 04:00:18;;;;;;;3.92;2.88;;;;;;;10.77;70.05;99992.06;6209017;22;20019;-72
2022/10/10 04:02:42;;;;;;;10.48;3.63;;;;;;;10.75;69.58;99997.50;6240498;22;20057;-73
2022/10/10 04:05:07;;;;;;;7.15;3.78;;;;;;;10.76;68.88;99998.38;6232118;22;20016;-72
2022/10/10 04:07:32;;;;;;;3.70;2.97;;;;;;;10.76;68.90;100006.34;6232028;22;20020;-72
2022/10/10 04:09:57;;;;;;;4.22;2.85;;;;;;;10.74;68.40;100009.13;6232102;22;20524;-72
2022/10/10 04:12:21;;;;;;;5.03;3.00;;;;;;;10.75;68.41;100007.31;6231459;22;20019;-72
2022/10/10 04:14:46;;;;;;;7.05;3.22;;;;;;;10.75;68.47;100005.50;6228608;22;20016;-72
2022/10/10 04:17:10;;;;;;;7.47;3.13;;;;;;;10.76;68.08;100015.22;6231562;22;20015;-71
2022/10/10 04:19:35;;;;;;;6.93;2.55;;;;;;;10.75;68.46;100012.66;6230962;22;20081;-71
2022/10/10 04:22:00;;;;;;;8.20;3.30;;;;;;;10.75;68.00;100017.97;6234784;22;20020;-73
2022/10/10 04:24:25;;;;;;;6.68;4.43;;;;;;;10.73;67.80;100017.22;6240734;22;20346;-72
2022/10/10 04:26:49;;;;;;;6.90;3.38;;;;;;;10.67;67.84;100021.16;6235371;22;20019;-72
2022/10/10 04:29:14;;;;;;;5.10;3.42;;;;;;;10.64;67.22;100021.34;6231455;22;20069;-73
2022/10/10 04:31:38;;;;;;;3.67;3.05;;;;;;;10.65;67.63;100035.53;6231830;22;20016;-73
2022/10/10 04:34:03;;;;;;;3.72;3.10;;;;;;;10.65;67.21;100036.41;6229319;22;20043;-72
2022/10/10 04:36:27;;;;;;;4.28;3.05;;;;;;;10.65;67.84;100032.88;6231650;22;20015;-73
2022/10/10 04:38:52;;;;;;;3.40;3.10;;;;;;;10.68;67.43;100035.34;6231708;22;20027;-71
2022/10/10 04:41:17;;;;;;;6.90;2.67;;;;;;;10.68;67.85;100041.53;6232592;22;20022;-72
2022/10/10 04:43:41;;;;;;;7.03;3.17;;;;;;;10.67;67.77;100042.50;6229780;22;20043;-73
2022/10/10 04:46:06;;;;;;;5.55;3.20;;;;;;;10.67;67.81;100046.97;6229807;22;20450;-72
2022/10/10 04:48:30;;;;;;;5.55;3.40;;;;;;;10.63;67.24;100061.44;6231413;22;20011;-72
2022/10/10 04:50:57;;;;;;;6.47;3.40;;;;;;;10.62;67.42;100067.72;6231681;22;20015;-72
2022/10/10 04:53:23;;;;;;;6.82;3.63;;;;;;;10.61;68.31;100072.22;6231489;22;20346;-72
2022/10/10 04:55:48;;;;;;;7.15;3.70;;;;;;;10.61;68.16;100074.88;6231239;22;20447;-72
2022/10/10 04:58:13;;;;;;;6.28;3.90;;;;;;;10.62;68.22;100076.59;6231321;22;20022;-72
2022/10/10 05:00:38;;;;;;;4.00;3.08;;;;;;;10.64;67.86;100080.03;6229132;22;20188;-72
2022/10/10 05:03:03;;;;;;;5.68;2.95;;;;;;;10.66;68.02;100079.91;6231214;22;20333;-71
2022/10/10 05:05:28;;;;;;;6.35;3.38;;;;;;;10.66;67.74;100085.25;6232114;22;20020;-72
2022/10/10 05:07:53;;;;;;;4.93;3.35;;;;;;;10.66;67.82;100079.91;6231691;22;20069;-72
2022/10/10 05:10:17;;;;;;;5.03;3.17;;;;;;;10.62;68.11;100083.72;6204105;22;20035;-72
2022/10/10 05:12:42;;;;;;;5.68;4.07;;;;;;;10.62;68.19;100086.41;6229036;22;20016;-73
2022/10/10 05:15:07;;;;;;;5.43;3.33;;;;;;;10.62;67.62;100092.59;6230121;22;20339;-72
2022/10/10 05:17:31;;;;;;;4.20;3.05;;;;;;;10.64;67.90;100095.16;6231531;22;20094;-72
2022/10/10 05:19:56;;;;;;;7.43;3.67;;;;;;;10.65;67.88;100095.06;6232647;22;20023;-71
2022/10/10 05:22:21;;;;;;;5.07;3.47;;;;;;;10.66;68.12;100095.91;6212990;22;20007;-72
2022/10/10 05:24:45;;;;;;;5.85;3.65;;;;;;;10.66;66.86;100117.25;6234630;22;20038;-71
2022/10/10 05:27:10;;;;;;;8.18;3.47;;;;;;;10.63;66.54;100109.44;6230891;22;20016;-72
2022/10/10 05:29:35;;;;;;;6.70;2.88;;;;;;;10.59;66.74;100110.63;6230875;22;20015;-71
2022/10/10 05:31:59;;;;;;;8.38;3.20;;;;;;;10.57;66.58;100118.69;6230868;22;20328;-71
2022/10/10 05:34:24;;;;;;;8.27;3.50;;;;;;;10.67;66.66;100111.81;6231158;22;20026;-72
2022/10/10 05:36:49;;;;;;;7.05;4.00;;;;;;;10.87;66.96;100114.06;6229093;22;20023;-72
2022/10/10 05:39:13;;;;;;;4.53;3.20;;;;;;;11.55;65.56;100105.94;6228389;22;20020;-71
2022/10/10 05:41:38;;;;;;;5.53;3.58;;;;;;;12.22;63.44;100111.09;6230216;22;20377;-71
2022/10/10 05:44:02;;;;;;;6.05;3.40;;;;;;;12.60;61.85;100116.41;6230483;22;20538;-72
2022/10/10 05:46:27;;;;;;;5.43;3.58;;;;;;;12.80;60.93;100122.97;6230968;22;20106;-72
2022/10/10 05:48:52;;;;;;;5.60;3.53;;;;;;;12.80;60.99;100115.78;6232052;22;20016;-72
2022/10/10 05:51:17;;;;;;;6.90;4.38;;;;;;;13.15;59.69;100125.75;6236484;22;20027;-71
2022/10/10 05:53:42;;;;;;;6.55;3.88;;;;;;;13.75;58.12;100113.09;6233572;22;20026;-72
2022/10/10 05:56:07;;;;;;;5.20;3.92;;;;;;;14.64;56.55;100106.09;6230723;22;20098;-72
2022/10/10 05:58:31;;;;;;;6.75;3.45;;;;;;;15.39;53.87;100114.16;6228693;22;20011;-72
2022/10/10 06:01:02;;;;;;;7.40;3.95;;;;;;;16.03;52.39;100120.31;6230218;22;20023;-72
2022/10/10 06:03:27;;;;;;;6.65;4.30;;;;;;;16.63;50.29;100124.03;6229199;22;20011;-72
2022/10/10 06:05:51;;;;;;;7.70;3.58;;;;;;;17.24;48.77;100140.06;6203402;22;20011;-71
2022/10/10 06:08:16;;;;;;;6.82;3.40;;;;;;;17.57;47.29;100136.09;6228498;22;20015;-71
2022/10/10 06:10:44;;;;;;;9.77;3.88;;;;;;;17.67;46.70;100134.28;6230669;22;20094;-72
2022/10/10 06:13:10;;;;;;;6.28;4.07;;;;;;;17.78;46.10;100137.69;6230186;22;20089;-71
2022/10/10 06:15:35;;;;;;;7.45;3.80;;;;;;;17.97;45.22;100138.66;6229021;22;20405;-72
2022/10/10 06:18:00;;;;;;;5.97;3.63;;;;;;;17.91;45.13;100150.03;6230336;22;20050;-72
2022/10/10 06:20:25;;;;;;;9.05;4.85;;;;;;;18.26;44.96;100146.69;6230051;22;20046;-72
2022/10/10 06:22:50;;;;;;;13.00;4.10;;;;;;;19.17;43.28;100145.88;6230645;22;20022;-71
2022/10/10 06:25:14;;;;;;;4.07;3.22;;;;;;;19.79;41.13;100154.94;6229977;22;20084;-72
2022/10/10 06:27:39;;;;;;;6.38;3.65;;;;;;;19.38;41.68;100159.09;6227384;22;20332;-71
2022/10/10 06:30:04;;;;;;;6.43;3.63;;;;;;;18.64;42.56;100170.03;6229932;22;20088;-71
2022/10/10 06:32:29;;;;;;;5.18;3.63;;;;;;;18.00;43.99;100162.66;6230107;22;20103;-71
2022/10/10 06:34:53;;;;;;;7.05;4.10;;;;;;;17.61;45.09;100170.72;6230542;22;20097;-72
2022/10/10 06:37:18;;;;;;;5.28;3.75;;;;;;;17.69;44.67;100173.59;6227875;22;20020;-71
2022/10/10 06:39:43;;;;;;;6.78;3.60;;;;;;;18.21;43.65;100163.31;6230471;22;20050;-72
2022/10/10 06:42:07;;;;;;;7.38;4.13;;;;;;;19.07;42.04;100162.16;6230525;22;20450;-72
2022/10/10 06:44:32;;;;;;;8.68;4.28;;;;;;;20.15;39.62;100161.16;6229422;22;20019;-72
2022/10/10 06:46:57;;;;;;;11.23;3.90;;;;;;;21.25;37.68;100170.22;6228295;22;20019;-71
2022/10/10 06:49:21;;;;;;;10.35;3.95;;;;;;;22.43;35.49;100168.97;6228364;22;20061;-72
2022/10/10 06:51:46;;;;;;;7.93;4.03;;;;;;;23.46;33.42;100268.59;6229912;22;20451;-71
2022/10/10 06:54:11;;;;;;;5.80;4.07;;;;;;;24.31;31.95;100263.13;6229415;22;20022;-70
2022/10/10 06:56:35;;;;;;;6.10;4.05;;;;;;;25.19;31.00;100281.53;6228047;22;20415;-72
2022/10/10 06:59:00;;;;;;;7.15;3.63;;;;;;;25.80;29.71;100246.66;6232536;22;20027;-72
2022/10/10 07:01:25;;;;;;;9.38;4.25;;;;;;;26.53;28.71;100186.16;6232716;22;20026;-72
2022/10/10 07:03:49;;;;;;;6.72;4.32;;;;;;;27.10;28.20;100182.31;6232257;22;20015;-72
2022/10/10 07:06:15;;;;;;;7.72;3.97;;;;;;;27.54;27.53;100179.09;6230815;22;20313;-72
2022/10/10 07:08:40;;;;;;;9.52;4.95;;;;;;;28.07;26.31;100190.22;6228003;22;20292;-72
2022/10/10 07:11:09;;;;;;;4.55;3.97;;;;;;;28.52;25.64;100186.66;6229366;22;20356;-72
2022/10/10 07:13:34;;;;;;;6.25;3.63;;;;;;;29.07;24.72;100178.94;6228473;22;20016;-71
2022/10/10 07:15:59;;;;;;;5.35;4.10;;;;;;;29.70;24.49;100187.31;6227969;22;20102;-73
2022/10/10 07:18:24;;;;;;;8.35;4.85;;;;;;;29.97;23.83;100182.53;6228178;22;20427;-73
2022/10/10 07:20:48;;;;;;;5.25;4.18;;;;;;;30.25;23.20;100185.69;6229373;22;20589;-73
2022/10/10 07:23:13;;;;;;;10.93;4.85;;;;;;;30.76;22.49;100184.63;6229436;22;20012;-72
2022/10/10 07:25:39;;;;;;;5.70;4.57;;;;;;;31.21;22.11;100184.34;6229306;22;20046;-73
2022/10/10 07:28:03;;;;;;;8.15;4.22;;;;;;;31.62;21.97;100186.31;6229148;22;20022;-72
2022/10/10 07:30:29;;;;;;;9.63;4.20;;;;;;;31.80;21.44;100188.25;6228667;22;20079;-72
2022/10/10 07:32:55;;;;;;;5.93;4.55;;;;;;;32.01;20.87;100184.94;6228738;22;20448;-73
2022/10/10 07:35:20;;;;;;;8.45;4.32;;;;;;;32.23;20.28;100188.84;6166061;23;20023;-73
2022/10/10 07:37:45;;;;;;;6.30;4.18;;;;;;;32.54;20.05;100190.44;6167067;23;20020;-72
2022/10/10 07:40:10;;;;;;;6.97;4.20;;;;;;;32.95;19.55;100189.50;6169858;23;20028;-72
2022/10/10 07:42:36;;;;;;;5.90;4.13;;;;;;;33.14;19.50;100192.94;6149065;23;20016;-72
2022/10/10 07:45:01;;;;;;;6.10;4.47;;;;;;;33.30;19.12;100196.88;6165632;23;20021;-71
2022/10/10 07:47:27;;;;;;;8.18;4.78;;;;;;;33.67;18.58;100195.44;6166419;23;20503;-73
2022/10/10 07:49:51;;;;;;;7.60;4.60;;;;;;;34.38;17.90;100190.38;6165892;23;20472;-72
2022/10/10 07:52:16;;;;;;;6.30;4.05;;;;;;;35.00;18.02;100193.00;6116055;23;20012;-74
2022/10/10 07:54:41;;;;;;;6.07;4.07;;;;;;;35.31;17.44;100197.88;6165724;23;20060;-73
2022/10/10 07:57:05;;;;;;;6.38;4.45;;;;;;;35.30;17.43;100190.66;6140978;23;20036;-72
2022/10/10 07:59:30;;;;;;;8.80;4.65;;;;;;;35.03;17.20;100190.56;6165286;23;20098;-71
2022/10/10 08:01:55;;;;;;;8.93;4.70;;;;;;;35.06;16.95;100190.03;6166050;23;20024;-72
2022/10/10 08:04:20;;;;;;;7.07;4.07;;;;;;;35.33;16.83;100189.31;6165903;23;20132;-73
2022/10/10 08:06:47;;;;;;;6.93;4.78;;;;;;;35.55;16.54;100185.44;6209321;22;20024;-72
2022/10/10 08:09:11;;;;;;;7.88;4.90;;;;;;;35.78;16.34;100191.81;6228986;22;20020;-71
2022/10/10 08:11:36;;;;;;;8.30;4.68;;;;;;;35.88;16.54;100195.53;6228621;22;20027;-68
2022/10/10 08:14:00;;;;;;;6.15;4.60;;;;;;;36.04;15.96;100188.16;6228866;22;20108;-69
2022/10/10 08:16:26;;;;;;;6.05;4.45;;;;;;;36.25;15.74;100190.03;6227627;22;20338;-70
2022/10/10 08:18:50;;;;;;;4.82;4.22;;;;;;;36.57;15.89;100186.41;6229607;22;20453;-69
2022/10/10 08:21:15;;;;;;;8.05;4.97;;;;;;;36.78;15.23;100185.47;6229131;22;20507;-68
2022/10/10 08:23:40;;;;;;;5.53;4.93;;;;;;;37.29;14.86;100256.09;6230703;22;20012;-69
2022/10/10 08:26:08;;;;;;;12.35;4.97;;;;;;;37.64;14.65;100198.97;6228695;22;20403;-69
2022/10/10 08:28:33;;;;;;;8.63;4.97;;;;;;;37.56;14.46;100191.13;6232563;22;20022;-69
2022/10/10 08:30:58;;;;;;;7.72;4.70;;;;;;;37.83;14.63;100191.75;6233397;22;20846;-68
2022/10/10 08:33:26;;;;;;;8.13;4.80;;;;;;;37.94;14.56;100200.97;6251156;22;20019;-67
2022/10/10 08:35:51;;;;;;;5.68;4.88;;;;;;;37.17;14.72;100185.97;6255674;22;20222;-68
2022/10/10 08:38:17;;;;;;;4.78;4.32;;;;;;;36.92;15.01;100196.94;6236846;22;20019;-69
2022/10/10 08:40:50;;;;;;;8.48;5.28;;;;;;;36.60;15.58;100202.53;6230180;22;20092;-69
2022/10/10 08:43:29;;;;;;;6.38;4.10;;;;;;;36.34;15.00;100194.03;6230426;22;20015;-67
2022/10/10 08:45:56;;;;;;;7.68;5.10;;;;;;;35.70;15.59;100204.16;6230732;22;20090;-68
2022/10/10 08:48:25;;;;;;;8.27;4.65;;;;;;;35.85;15.17;100198.81;6229982;22;20015;-68
2022/10/10 08:50:56;;;;;;;6.63;4.47;;;;;;;36.40;14.24;100194.06;6230560;22;20350;-67
2022/10/10 08:53:47;;;;;;;4.55;4.15;;;;;;;37.30;14.22;100193.81;6229013;22;20020;-69
2022/10/10 08:56:18;;;;;;;6.40;4.20;;;;;;;36.95;14.08;100191.66;6217589;22;20050;-67
2022/10/10 08:58:49;;;;;;;5.72;4.43;;;;;;;36.60;14.62;100196.97;6230330;22;20015;-69
2022/10/10 09:01:27;;;;;;;6.15;4.13;;;;;;;36.17;14.53;100196.06;6228916;22;20439;-69
2022/10/10 09:03:54;;;;;;;6.72;4.13;;;;;;;35.25;15.29;100205.28;6229828;22;20012;-68
2022/10/10 09:06:22;;;;;;;4.78;3.90;;;;;;;34.02;16.37;100200.81;6230330;22;20861;-71
2022/10/10 09:08:58;;;;;;;8.73;4.28;;;;;;;32.26;18.20;100198.59;6229823;22;20020;-68
2022/10/10 09:11:41;;;;;;;10.70;4.35;;;;;;;30.82;19.21;100191.94;6229974;22;20019;-69
2022/10/10 09:14:41;;;;;;;7.93;4.53;;;;;;;30.38;20.54;100195.72;6230277;22;20362;-68
2022/10/10 09:17:15;;;;;;;6.65;4.22;;;;;;;29.92;20.58;100190.56;6230620;22;20030;-67
2022/10/10 09:20:07;;;;;;;7.25;4.20;;;;;;;29.96;19.88;100195.44;6230568;22;20019;-67
2022/10/10 09:22:52;;;;;;;14.32;4.78;;;;;;;30.40;20.39;100201.84;6228886;22;20007;-69
2022/10/10 09:25:34;;;;;;;5.93;3.85;;;;;;;30.51;18.89;100203.88;6230108;22;20098;-68
2022/10/10 09:28:10;;;;;;;3.75;3.08;;;;;;;31.11;17.89;100195.06;6230646;22;20149;-67
2022/10/10 09:30:39;;;;;;;5.55;3.20;;;;;;;31.13;17.34;100204.78;6229606;22;20153;-67
2022/10/10 09:33:16;;;;;;;5.13;3.38;;;;;;;31.42;18.11;100202.28;6236598;22;20035;-66
2022/10/10 09:35:41;;;;;;;6.00;3.42;;;;;;;31.98;16.84;100202.78;6233482;22;20020;-67
2022/10/10 09:38:32;;;;;;;14.18;4.13;;;;;;;33.51;16.90;100212.81;6229717;22;20026;-67
2022/10/10 09:41:06;;;;;;;6.57;3.92;;;;;;;34.27;15.15;100208.75;6230570;22;20050;-66
2022/10/10 09:43:33;;;;;;;6.85;3.72;;;;;;;34.97;14.25;100210.16;6230167;22;20332;-66
2022/10/10 09:45:58;;;;;;;8.63;3.80;;;;;;;35.36;14.04;100205.41;6229154;22;20085;-66
2022/10/10 09:48:38;;;;;;;3.80;3.50;;;;;;;35.39;14.66;100205.75;6228579;22;20019;-67
2022/10/10 09:51:05;;;;;;;9.13;3.58;;;;;;;33.70;14.67;100210.69;6228582;22;20043;-67
2022/10/10 09:53:30;;;;;;;4.50;3.20;;;;;;;32.74;15.31;100212.19;6227998;22;20443;-66
2022/10/10 09:55:57;;;;;;;4.30;3.53;;;;;;;32.21;15.92;100212.25;6228695;22;20019;-66
2022/10/10 09:58:27;;;;;;;3.80;3.40;;;;;;;31.66;16.95;100204.13;6228682;22;20022;-66
2022/10/10 10:00:52;;;;;;;7.18;3.88;;;;;;;30.83;17.37;100206.56;6228987;22;20016;-67
2022/10/10 10:03:19;;;;;;;5.80;3.83;;;;;;;30.73;17.52;100209.00;6228704;22;20015;-65
2022/10/10 10:05:54;;;;;;;7.72;3.47;;;;;;;31.62;17.12;100198.19;6228836;22;20016;-67
2022/10/10 10:08:25;;;;;;;5.20;3.22;;;;;;;30.99;17.63;100206.81;6228470;22;20500;-66
2022/10/10 10:10:50;;;;;;;6.93;3.67;;;;;;;28.80;18.51;100197.38;6228423;22;20451;-67
2022/10/10 10:13:23;;;;;;;6.35;3.33;;;;;;;26.81;21.24;100205.28;6228614;22;20514;-68
2022/10/10 10:15:51;;;;;;;6.70;3.65;;;;;;;24.65;23.13;100205.41;6227128;22;20347;-66
2022/10/10 10:18:15;;;;;;;6.90;3.28;;;;;;;23.02;25.21;100210.28;6228170;22;20090;-66
2022/10/10 10:20:43;;;;;;;9.95;3.50;;;;;;;21.85;26.83;100202.56;6200822;22;20039;-66
2022/10/10 10:23:39;;;;;;;3.25;2.55;;;;;;;21.15;27.25;100196.59;6201273;22;20219;-66
2022/10/10 10:26:13;;;;;;;8.15;3.10;;;;;;;19.97;29.33;100209.06;6226375;22;20039;-66
2022/10/10 10:28:42;;;;;;;6.75;3.13;;;;;;;19.34;29.70;100198.25;6228181;22;20015;-66
2022/10/10 10:31:40;;;;;;;4.25;2.70;;;;;;;18.88;30.30;100210.00;6228499;22;20020;-66
2022/10/10 10:34:05;;;;;;;6.88;3.35;;;;;;;18.06;32.25;100200.69;6228788;22;20020;-67
2022/10/10 10:37:04;;;;;;;6.80;2.75;;;;;;;17.81;32.36;100208.53;6228674;22;20061;-75
2022/10/10 10:39:40;;;;;;;7.05;3.22;;;;;;;17.42;32.85;100197.66;6230500;22;20018;-72
2022/10/10 10:42:17;;;;;;;5.88;2.67;;;;;;;16.93;34.41;100202.06;6229238;22;20019;-71
2022/10/10 10:44:58;;;;;;;6.10;2.95;;;;;;;16.67;34.44;100200.84;6228977;22;20079;-70
2022/10/10 10:47:22;;;;;;;6.13;2.75;;;;;;;16.29;35.02;100201.47;6227366;22;20015;-72
2022/10/10 10:50:09;;;;;;;3.67;2.80;;;;;;;16.22;34.08;100201.16;6228890;22;20026;-70
2022/10/10 10:52:41;;;;;;;3.92;2.40;;;;;;;15.90;36.06;100203.91;6228467;22;20335;-69
2022/10/10 10:55:36;;;;;;;4.18;2.78;;;;;;;15.74;36.69;100199.94;6227946;22;20090;-71
2022/10/10 10:58:25;;;;;;;;;;;;;;;15.83;34.34;100199.16;6229172;22;20015;-68
2022/10/10 11:01:13;;;;;;;8.55;3.35;;;;;;;15.53;35.75;100207.91;6239293;22;19911;-71
2022/10/10 11:04:03;;;;;;;3.83;2.42;;;;;;;15.34;36.31;100207.75;6239433;22;20096;-69
2022/10/10 11:06:54;;;;;;;3.83;2.17;;;;;;;15.17;35.85;100203.75;6239795;22;20016;-69
2022/10/10 11:09:34;;;;;;;4.20;2.15;;;;;;;14.99;37.74;100202.56;6238047;22;20027;-68
2022/10/10 11:12:06;;;;;;;5.75;2.38;;;;;;;14.87;36.73;100201.72;6229163;22;20443;-69
2022/10/10 11:15:01;;;;;;;4.35;2.33;;;;;;;14.85;35.56;100193.78;6231432;22;20067;-69
2022/10/10 11:18:02;;;;;;;5.45;2.35;;;;;;;14.59;35.41;100197.69;6231624;22;20020;-68
2022/10/10 11:20:37;;;;;;;7.10;2.15;;;;;;;14.45;36.51;100200.59;6210156;22;20030;-69
2022/10/10 11:23:38;;;;;;;5.32;2.05;;;;;;;14.39;36.68;100199.25;6229049;22;20459;-70
2022/10/10 11:26:11;;;;;;;5.78;2.33;;;;;;;14.26;38.22;100195.78;6106933;23;20017;-69
2022/10/10 11:28:41;;;;;;;8.02;2.72;;;;;;;14.16;38.64;100197.47;6109568;23;20021;-69
2022/10/10 11:31:11;;;;;;;7.65;3.28;;;;;;;14.12;39.27;100196.84;6106526;23;20052;-69
2022/10/10 11:33:40;;;;;;;6.28;2.42;;;;;;;14.06;39.55;100199.16;6107479;23;20025;-68
2022/10/10 11:36:11;;;;;;;8.65;3.17;;;;;;;13.96;38.55;100196.34;6109152;23;20024;-69
2022/10/10 11:39:02;;;;;;;7.93;2.72;;;;;;;14.01;37.99;100202.19;6120108;23;20052;-69